Latest Weather Observations for Port Fairy

IDV60801

Issued at 7:32 pm EST Sunday 31 July 2016 (issued every 30 minutes, with the page automatically refreshed every 10 minutes)

About weather observations | Map of weather stations | Latest weather observations for VIC | Other Formats
Station Details ID: 090175 Name: PORT FAIRY AWS Lat: -38.39 Lon: 142.23 Height: 10.0 m
Data from the previous 72 hours. | See also: Recent months at Port Fairy
Date/Time
EST
Temp
°C
App
Temp
°C
Dew
Point
°C
Rel
Hum
%
Delta-T
°C
Wind Press
QNH
hPa
Press
MSL
hPa
Rain since
9am
mm
Dir  Spd
km/h
Gust
km/h
Spd
kts
Gust
kts
31/07:30pm 10.2 8.3 7.4 83 1.3 NNE 7 9 4 5 1012.3 1012.3 0.2
31/07:00pm 10.4 8.4 7.3 81 1.5 NNE 7 9 4 5 1012.4 1012.4 0.2
31/06:30pm 10.7 8.9 7.2 79 1.7 N 6 7 3 4 1012.5 1012.5 0.2
31/06:00pm 11.4 9.5 7.5 77 1.9 NNE 7 9 4 5 1012.5 1012.5 0.2
31/05:30pm 12.2 10.3 7.5 73 2.3 N 7 13 4 7 1012.4 1012.4 0.2
31/05:00pm 13.5 11.3 7.9 69 2.8 N 9 15 5 8 1012.4 1012.4 0.2
31/04:30pm 14.3 11.7 7.8 65 3.2 N 11 17 6 9 1012.6 1012.6 0.2
31/04:00pm 15.2 12.3 8.2 63 3.5 N 13 20 7 11 1012.8 1012.8 0.2
31/03:30pm 14.9 13.2 8.2 64 3.4 N 7 17 4 9 1012.9 1012.9 0.2
31/03:00pm 15.2 11.7 7.3 59 3.9 N 15 26 8 14 1013.1 1013.1 0.2
31/02:30pm 14.5 10.9 6.8 60 3.7 NNW 15 24 8 13 1013.2 1013.2 0.2
31/02:00pm 14.6 11.5 7.4 62 3.5 NNW 13 22 7 12 1013.3 1013.3 0.2
31/01:30pm 15.4 11.8 6.7 56 4.2 NNW 15 24 8 13 1013.6 1013.6 0.2
31/01:00pm 15.4 12.3 7.2 58 4.0 N 13 26 7 14 1014.1 1014.1 0.2
31/12:30pm 15.3 13.5 8.1 62 3.6 NW 7 11 4 6 1014.5 1014.5 0.2
31/12:00pm 14.2 11.9 7.5 64 3.3 NNW 9 15 5 8 1014.9 1014.9 0.2
31/11:30am 14.4 11.8 7.9 65 3.2 NNW 11 17 6 9 1015.3 1015.3 0.2
31/11:00am 14.0 11.7 9.0 72 2.5 NNW 11 17 6 9 1015.5 1015.5 0.0
31/10:30am 13.7 12.2 10.7 82 1.6 NNW 9 13 5 7 1015.5 1015.5 0.0
31/10:00am 12.9 12.0 11.5 91 0.7 NNW 7 13 4 7 1015.5 1015.5 0.0
31/09:30am 11.1 9.6 10.6 97 0.3 NNW 9 17 5 9 1015.5 1015.5 0.0
31/09:00am 10.4 9.2 10.4 100 0.0 NNW 7 13 4 7 1015.5 1015.5 0.0
31/08:30am 9.4 7.6 9.4 100 0.0 NNW 9 13 5 7 1015.5 1015.5 0.0
31/08:00am 8.4 6.7 8.4 100 0.0 NNW 7 13 4 7 1015.2 1015.2 0.0
31/07:30am 8.6 7.0 8.6 100 0.0 NW 7 11 4 6 1015.0 1015.0 0.0
31/07:00am 8.8 6.1 8.8 100 0.0 NNW 13 19 7 10 1014.4 1014.4 0.0
31/06:30am 9.1 6.8 9.1 100 0.0 NNW 11 15 6 8 1014.1 1014.1 0.0
31/06:00am 8.5 6.1 8.5 100 0.0 NNW 11 15 6 8 1013.6 1013.6 0.0
31/05:30am 8.7 6.7 8.7 100 0.0 NNW 9 13 5 7 1013.5 1013.5 0.0
31/05:00am 9.4 7.2 9.4 100 0.0 NNW 11 17 6 9 1013.4 1013.4 0.0
31/04:30am 9.6 7.5 9.6 100 0.0 NNW 11 15 6 8 1013.2 1013.2 0.0
31/04:00am 9.3 7.1 9.3 100 0.0 NNW 11 17 6 9 1012.9 1012.9 0.0
31/03:30am 10.0 8.0 10.0 100 0.0 NNW 11 17 6 9 1012.7 1012.7 0.0
31/03:00am 10.2 8.6 10.2 100 0.0 NNW 9 15 5 8 1012.9 1012.9 0.0
31/02:30am 10.5 9.0 10.5 100 0.0 NW 9 15 5 8 1012.9 1012.9 0.0
31/02:00am 10.7 8.9 10.7 100 0.0 NNW 11 17 6 9 1012.7 1012.7 0.0
31/01:30am 11.0 9.2 11.0 100 0.0 NW 11 17 6 9 1012.4 1012.4 0.0
31/01:00am 11.5 9.5 11.5 100 0.0 NW 13 22 7 12 1012.2 1012.2 0.0
31/12:30am 12.1 9.5 11.9 99 0.1 NW 17 28 9 15 1012.1 1012.1 0.0
31/12:00am 12.2 9.0 12.0 99 0.1 NW 20 30 11 16 1011.7 1011.7 0.0
 
Date/Time
EST
Temp
°C
App
Temp
°C
Dew
Point
°C
Rel
Hum
%
Delta-T
°C
Wind Press
QNH
hPa
Press
MSL
hPa
Rain since
9am
mm
Dir  Spd
km/h
Gust
km/h
Spd
kts
Gust
kts
30/11:30pm 12.2 8.6 12.0 99 0.1 NW 22 35 12 19 1011.4 1011.4 0.0
30/11:00pm 12.5 8.9 10.7 89 0.9 NNW 20 32 11 17 1011.0 1011.0 0.0
30/10:30pm 13.3 8.5 10.3 82 1.6 NNW 26 43 14 23 1010.8 1010.8 0.0
30/10:00pm 13.3 8.0 9.9 80 1.8 NNW 28 43 15 23 1010.6 1010.6 0.0
30/09:37pm 13.2 7.9 9.8 80 1.7 NNW 28 46 15 25 1010.4 1010.4 0.0
30/09:30pm 13.2 8.3 9.8 80 1.7 NNW 26 39 14 21 1010.5 1010.5 0.0
30/09:00pm 13.4 8.8 9.5 77 2.0 NNW 24 41 13 22 1010.5 1010.5 0.0
30/08:30pm 13.8 8.4 9.5 75 2.2 NNW 28 43 15 23 1010.6 1010.6 0.0
30/08:00pm 13.7 9.0 9.2 74 2.3 NNW 24 39 13 21 1010.3 1010.3 0.0
30/07:30pm 13.5 9.5 9.0 74 2.3 NNW 20 30 11 16 1010.2 1010.2 0.0
30/07:00pm 13.0 9.0 9.1 77 2.0 N 20 30 11 16 1009.8 1009.8 0.0
30/06:30pm 13.2 8.9 9.5 78 1.9 N 22 32 12 17 1009.9 1009.9 0.0
30/06:00pm 13.2 8.9 9.5 78 1.9 NNW 22 37 12 20 1009.9 1009.9 0.0
30/05:30pm 13.2 8.2 9.5 78 1.9 N 26 41 14 22 1009.6 1009.6 0.0
30/05:00pm 13.1 7.7 9.5 79 1.8 N 28 44 15 24 1009.3 1009.3 0.0
30/04:30pm 13.0 8.0 9.4 79 1.8 N 26 43 14 23 1009.5 1009.5 0.0
30/04:00pm 12.9 8.3 9.7 81 1.6 N 24 43 13 23 1010.2 1010.2 0.0
30/03:30pm 12.7 7.8 9.9 83 1.4 N 26 37 14 20 1010.4 1010.4 0.0
30/03:00pm 12.8 7.8 9.6 81 1.6 N 26 46 14 25 1011.0 1011.0 0.0
30/02:39pm 13.2 7.9 10.0 81 1.6 N 28 48 15 26 1011.3 1011.3 0.0
30/02:30pm 13.4 8.6 10.2 81 1.7 N 26 44 14 24 1011.7 1011.7 0.0
30/02:00pm 13.5 8.3 10.3 81 1.7 N 28 46 15 25 1012.8 1012.8 0.0
30/01:30pm 13.6 8.9 10.6 82 1.6 N 26 44 14 24 1013.3 1013.3 0.0
30/01:00pm 13.9 8.3 10.3 79 1.9 N 30 44 16 24 1014.2 1014.2 0.0
30/12:30pm 14.0 8.1 10.4 79 1.9 N 32 46 17 25 1014.6 1014.6 0.0
30/12:00pm 13.7 8.6 10.5 81 1.7 N 28 50 15 27 1015.2 1015.2 0.0
30/11:30am 13.6 7.6 10.2 80 1.8 N 32 54 17 29 1015.5 1015.5 0.0
30/11:26am 14.2 9.2 10.8 80 1.8 N 28 48 15 26 1015.8 1015.8 0.0
30/11:00am 13.5 9.3 11.2 86 1.2 N 24 43 13 23 1017.1 1017.1 0.0
30/10:30am 12.6 9.5 11.7 94 0.5 N 19 30 10 16 1017.3 1017.3 0.0
30/10:00am 11.5 8.6 11.0 97 0.3 N 17 26 9 14 1017.4 1017.4 0.0
30/09:30am 10.9 7.9 10.7 99 0.1 N 17 24 9 13 1017.8 1017.8 0.0
30/09:00am 10.4 8.1 10.4 100 0.0 N 13 20 7 11 1018.1 1018.1 2.2
30/08:30am 10.1 8.1 10.1 100 0.0 N 11 19 6 10 1018.4 1018.4 2.2
30/08:00am 10.2 7.8 10.2 100 0.0 N 13 19 7 10 1018.3 1018.3 2.2
30/07:30am 10.2 7.5 10.2 100 0.0 NNW 15 24 8 13 1018.7 1018.7 2.2
30/07:00am 9.4 6.8 9.4 100 0.0 N 13 20 7 11 1018.9 1018.9 2.2
30/06:30am 9.2 7.3 9.2 100 0.0 N 9 15 5 8 1019.1 1019.1 2.2
30/06:00am 9.7 7.2 9.7 100 0.0 N 13 20 7 11 1019.1 1019.1 2.2
30/05:30am 9.3 7.5 9.3 100 0.0 N 9 15 5 8 1019.2 1019.2 2.2
30/05:00am 9.5 7.7 9.5 100 0.0 N 9 13 5 7 1019.3 1019.3 2.2
30/04:30am 9.8 8.5 9.8 100 0.0 NNE 7 9 4 5 1019.6 1019.6 2.2
30/04:00am 9.6 8.4 9.6 100 0.0 NNE 6 7 3 4 1019.7 1019.7 2.2
30/03:30am 9.3 8.0 9.3 100 0.0 N 6 9 3 5 1020.0 1020.0 2.2
30/03:00am 9.3 7.8 9.3 100 0.0 N 7 9 4 5 1020.3 1020.3 2.2
30/02:30am 9.3 7.5 9.3 100 0.0 N 9 13 5 7 1020.5 1020.5 2.2
30/02:00am 8.9 7.3 8.9 100 0.0 N 7 9 4 5 1020.8 1020.8 2.2
30/01:30am 9.3 7.5 9.3 100 0.0 NNW 9 13 5 7 1020.9 1020.9 2.0
30/01:00am 8.9 7.0 8.9 100 0.0 NNW 9 11 5 6 1020.9 1020.9 2.0
30/12:30am 8.7 7.1 8.7 100 0.0 NNW 7 11 4 6 1021.1 1021.1 2.0
30/12:00am 9.1 7.2 9.1 100 0.0 NNW 9 15 5 8 1021.4 1021.4 2.0
 
Date/Time
EST
Temp
°C
App
Temp
°C
Dew
Point
°C
Rel
Hum
%
Delta-T
°C
Wind Press
QNH
hPa
Press
MSL
hPa
Rain since
9am
mm
Dir  Spd
km/h
Gust
km/h
Spd
kts
Gust
kts
29/11:30pm 9.4 6.8 9.4 100 0.0 NNW 13 17 7 9 1021.4 1021.4 2.0
29/11:00pm 9.5 7.7 9.5 100 0.0 NNW 9 13 5 7 1021.6 1021.6 2.0
29/10:30pm 9.6 7.8 9.6 100 0.0 NNW 9 13 5 7 1021.4 1021.4 2.0
29/10:00pm 9.8 8.5 9.8 100 0.0 NNW 7 11 4 6 1021.6 1021.6 2.0
29/09:30pm 10.4 9.2 10.4 100 0.0 NNW 7 11 4 6 1021.4 1021.4 2.0
29/09:00pm 10.9 9.9 10.9 100 0.0 NNW 7 9 4 5 1021.4 1021.4 2.0
29/08:30pm 11.1 11.1 11.1 100 0.0 WNW 2 7 1 4 1021.3 1021.3 2.0
29/08:00pm 11.6 10.7 11.4 99 0.1 NW 7 11 4 6 1021.1 1021.1 1.2
29/07:30pm 11.3 10.3 11.1 99 0.1 NNW 7 11 4 6 1021.0 1021.0 1.2
29/07:00pm 11.8 11.0 11.6 99 0.1 NW 7 11 4 6 1020.9 1020.9 1.2
29/06:30pm 12.2 10.5 11.3 94 0.5 WNW 11 15 6 8 1020.6 1020.6 1.2
29/06:00pm 12.5 10.3 10.9 90 0.8 W 13 20 7 11 1020.2 1020.2 1.2
29/05:30pm 12.7 10.4 10.6 87 1.1 W 13 19 7 10 1019.9 1019.9 1.2
29/05:00pm 13.2 9.9 10.9 86 1.2 W 19 28 10 15 1019.8 1019.8 1.2
29/04:30pm 13.6 10.5 11.5 87 1.1 W 19 30 10 16 1019.7 1019.7 1.2
29/04:00pm 13.8 11.3 12.4 91 0.8 W 17 26 9 14 1019.5 1019.5 1.2
29/03:30pm 13.7 10.3 11.4 86 1.2 W 20 32 11 17 1019.6 1019.6 1.2
29/03:00pm 13.9 10.1 12.3 90 0.9 W 24 35 13 19 1019.6 1019.6 1.2
29/02:30pm 14.2 11.0 13.1 93 0.6 W 22 32 12 17 1019.5 1019.5 1.2
29/02:00pm 13.1 9.9 13.1 100 0.0 W 22 35 12 19 1019.6 1019.6 1.2
29/01:30pm 12.7 8.2 12.7 100 0.0 WSW 28 39 15 21 1019.5 1019.5 1.2
29/01:00pm 14.3 11.3 12.7 90 0.9 W 20 35 11 19 1019.7 1019.7 0.6
29/12:30pm 13.9 10.7 13.0 94 0.5 W 22 32 12 17 1019.7 1019.7 0.6
29/12:00pm 13.4 9.3 12.8 96 0.3 W 26 33 14 18 1020.1 1020.1 0.6
29/11:30am 12.0 6.4 12.0 100 0.0 W 33 50 18 27 1020.6 1020.6 0.6
29/11:10am 12.3 7.7 12.3 100 0.0 W 28 50 15 27 1020.7 1020.7 0.6
29/11:00am 12.4 8.5 12.2 99 0.1 W 24 41 13 22 1020.6 1020.6 0.6
29/10:30am 13.0 11.1 13.0 100 0.0 WNW 15 24 8 13 1020.4 1020.4 0.4
29/10:00am 12.0 10.5 12.0 100 0.0 WNW 11 20 6 11 1020.5 1020.5 0.4
29/09:30am 12.0 9.8 12.0 100 0.0 WNW 15 26 8 14 1020.4 1020.4 0.0
29/09:00am 11.7 10.5 11.7 100 0.0 NW 9 15 5 8 1020.2 1020.2 3.4
29/08:30am 11.6 10.0 11.6 100 0.0 NW 11 17 6 9 1020.1 1020.1 3.4
29/08:00am 11.7 9.8 11.7 100 0.0 WNW 13 22 7 12 1019.9 1019.9 3.4
29/07:30am 11.6 8.9 11.6 100 0.0 WNW 17 28 9 15 1019.6 1019.6 3.4
29/07:00am 11.7 9.4 11.7 100 0.0 WNW 15 22 8 12 1019.5 1019.5 3.4
29/06:30am 11.6 8.9 11.6 100 0.0 WNW 17 30 9 16 1019.3 1019.3 3.2
29/06:00am 11.5 9.5 11.5 100 0.0 NW 13 22 7 12 1019.1 1019.1 3.0
29/05:30am 11.5 9.5 11.5 100 0.0 NW 13 28 7 15 1019.1 1019.1 2.8
29/05:00am 11.5 9.5 11.5 100 0.0 WNW 13 22 7 12 1019.1 1019.1 2.0
29/04:30am 11.6 8.9 11.6 100 0.0 WNW 17 28 9 15 1019.0 1019.0 1.0
29/04:00am 11.6 9.3 11.6 100 0.0 NW 15 28 8 15 1019.0 1019.0 0.6
29/03:30am 11.6 8.9 11.6 100 0.0 NW 17 28 9 15 1019.1 1019.1 0.2
29/03:00am 11.9 9.6 11.7 99 0.1 NW 15 28 8 15 1019.3 1019.3 0.2
29/02:30am 11.9 9.2 11.7 99 0.1 NW 17 28 9 15 1019.5 1019.5 0.2
29/02:00am 12.0 9.2 11.4 96 0.3 NW 17 28 9 15 1019.5 1019.5 0.2
29/01:30am 11.9 9.8 11.3 96 0.3 NW 13 22 7 12 1019.7 1019.7 0.2
29/01:00am 11.9 9.0 11.1 95 0.4 NW 17 30 9 16 1019.9 1019.9 0.2
29/12:30am 12.0 8.8 11.1 94 0.5 NW 19 32 10 17 1019.9 1019.9 0.2
29/12:00am 12.1 9.3 11.2 94 0.5 NW 17 28 9 15 1020.3 1020.3 0.2
 
Date/Time
EST
Temp
°C
App
Temp
°C
Dew
Point
°C
Rel
Hum
%
Delta-T
°C
Wind Press
QNH
hPa
Press
MSL
hPa
Rain since
9am
mm
Dir  Spd
km/h
Gust
km/h
Spd
kts
Gust
kts
28/11:30pm 12.0 9.2 11.2 95 0.4 NW 17 26 9 14 1020.4 1020.4 0.2
28/11:00pm 11.7 8.9 11.4 98 0.2 NW 17 30 9 16 1020.6 1020.6 0.2
28/10:30pm 12.0 9.0 10.7 92 0.7 NW 17 28 9 15 1021.0 1021.0 0.2
28/10:00pm 11.9 8.9 10.8 93 0.6 NW 17 28 9 15 1021.1 1021.1 0.2
28/09:30pm 12.0 9.0 10.6 91 0.7 NW 17 30 9 16 1021.2 1021.2 0.2
28/09:00pm 12.2 8.8 10.6 90 0.8 NNW 19 30 10 16 1021.5 1021.5 0.2
28/08:30pm 12.1 9.4 10.5 90 0.8 NW 15 26 8 14 1021.5 1021.5 0.2
28/08:00pm 12.1 9.1 10.5 90 0.8 NW 17 24 9 13 1021.6 1021.6 0.2

Other Formats:

Comma delimited format used in spreadsheet applications
http://www.bom.gov.au/fwo/IDV60801/IDV60801.94830.axf

JavaScript Object Notation format (JSON) in row-major order
http://www.bom.gov.au/fwo/IDV60801/IDV60801.94830.json